createdAt,value
2022-08-17T00:01:20.779Z,97777.03
2022-08-17T00:03:50.600Z,97773.44
2022-08-17T00:06:24.365Z,97770.06
2022-08-17T00:08:52.218Z,97769.19
2022-08-17T00:11:23.819Z,97767.25
2022-08-17T00:13:51.229Z,97768.84
2022-08-17T00:16:57.094Z,97770.03
2022-08-17T00:19:21.612Z,97769.69
2022-08-17T00:22:29.950Z,97763.75
2022-08-17T00:24:34.471Z,97762.50
2022-08-17T00:27:01.737Z,97754.19
2022-08-17T00:29:28.090Z,97761.47
2022-08-17T00:31:54.469Z,97766.66
2022-08-17T00:34:20.832Z,97764.59
2022-08-17T00:36:47.251Z,97762.94
2022-08-17T00:39:13.674Z,97759.19
2022-08-17T00:41:42.378Z,97754.34
2022-08-17T00:44:09.651Z,97754.34
2022-08-17T00:46:38.179Z,97753.63
2022-08-17T00:49:04.861Z,97751.22
2022-08-17T00:51:31.173Z,97758.75
2022-08-17T00:54:09.023Z,97750.81
2022-08-17T00:56:36.743Z,97755.47
2022-08-17T00:59:04.131Z,97751.78
2022-08-17T01:01:30.582Z,97760.97
2022-08-17T01:03:57.063Z,97745.91
2022-08-17T01:06:28.286Z,97758.16
2022-08-17T01:08:57.350Z,97755.69
2022-08-17T01:11:24.398Z,97741.13
2022-08-17T01:13:50.765Z,97749.75
2022-08-17T01:16:20.167Z,97756.44
2022-08-17T01:18:47.060Z,97753.47
2022-08-17T01:21:16.006Z,97749.28
2022-08-17T01:23:42.427Z,97752.22
2022-08-17T01:26:08.794Z,97753.81
2022-08-17T01:28:52.962Z,97747.75
2022-08-17T01:31:21.547Z,97750.19
2022-08-17T01:33:47.930Z,97750.56
2022-08-17T01:36:14.329Z,97746.22
2022-08-17T01:38:40.723Z,97751.78
2022-08-17T01:41:09.422Z,97755.25
2022-08-17T01:43:41.644Z,97750.31
2022-08-17T01:46:08.093Z,97748.25
2022-08-17T01:48:35.235Z,97752.66
2022-08-17T01:51:01.642Z,97749.22
2022-08-17T01:53:29.863Z,97749.34
2022-08-17T01:55:57.473Z,97749.69
2022-08-17T01:58:23.874Z,97744.25
2022-08-17T02:00:59.964Z,97744.31
2022-08-17T02:03:27.916Z,97740.22
2022-08-17T02:05:54.404Z,97738.84
2022-08-17T02:08:20.803Z,97734.50
2022-08-17T02:11:04.380Z,97732.63
2022-08-17T02:13:38.074Z,97735.41
2022-08-17T02:16:04.435Z,97743.94
2022-08-17T02:18:30.809Z,97739.91
2022-08-17T02:20:57.176Z,97746.66
2022-08-17T02:23:23.876Z,97741.50
2022-08-17T02:25:50.278Z,97741.97
2022-08-17T02:28:16.965Z,97738.41
2022-08-17T02:31:01.694Z,97729.25
2022-08-17T02:33:42.756Z,97737.53
2022-08-17T02:36:10.048Z,97734.44
2022-08-17T02:38:36.824Z,97736.59
2022-08-17T02:41:03.258Z,97738.22
2022-08-17T02:43:29.824Z,97738.81
2022-08-17T02:45:56.215Z,97732.22
2022-08-17T02:48:29.698Z,97731.91
2022-08-17T02:50:58.091Z,97724.91
2022-08-17T02:53:24.492Z,97733.75
2022-08-17T02:55:52.402Z,97736.88
2022-08-17T02:58:35.302Z,97736.97
2022-08-17T03:01:03.501Z,97736.53
2022-08-17T03:03:29.920Z,97741.28
2022-08-17T03:05:56.368Z,97736.16
2022-08-17T03:08:23.347Z,97722.41
2022-08-17T03:10:50.420Z,97735.88
2022-08-17T03:13:17.081Z,97733.88
2022-08-17T03:15:45.137Z,97737.22
2022-08-17T03:18:18.885Z,97733.88
2022-08-17T03:20:51.570Z,97729.00
2022-08-17T03:23:18.668Z,97733.50
2022-08-17T03:25:50.372Z,97742.00
2022-08-17T03:28:19.660Z,97736.53
2022-08-17T03:30:46.043Z,97738.50
2022-08-17T03:33:12.418Z,97727.81
2022-08-17T03:35:40.258Z,97737.81
2022-08-17T03:38:06.935Z,97732.38
2022-08-17T03:40:55.559Z,97734.41
2022-08-17T03:43:20.228Z,97735.47
2022-08-17T03:46:05.827Z,97728.59
2022-08-17T03:48:56.335Z,97734.56
2022-08-17T03:51:42.096Z,97735.34
2022-08-17T03:54:27.221Z,97730.31
2022-08-17T03:57:11.703Z,97729.00
2022-08-17T03:59:38.200Z,97726.75
2022-08-17T04:02:08.967Z,97723.03
2022-08-17T04:04:35.757Z,97731.81
2022-08-17T04:07:02.225Z,97730.59
2022-08-17T04:09:28.593Z,97736.69
2022-08-17T04:11:54.987Z,97729.69
2022-08-17T04:14:23.621Z,97734.13
2022-08-17T04:16:49.990Z,97723.16
2022-08-17T04:19:16.372Z,97727.50
2022-08-17T04:21:42.790Z,97727.75
2022-08-17T04:24:09.185Z,97729.34
2022-08-17T04:26:52.210Z,97735.97
2022-08-17T04:29:21.329Z,97729.72
2022-08-17T04:31:48.027Z,97738.75
2022-08-17T04:34:14.407Z,97741.41
2022-08-17T04:36:50.093Z,97745.16
2022-08-17T04:39:17.000Z,97750.06
2022-08-17T04:42:02.049Z,97753.34
2022-08-17T04:44:37.040Z,97749.41
2022-08-17T04:47:04.330Z,97752.44
2022-08-17T04:49:30.742Z,97753.19
2022-08-17T04:51:59.085Z,97757.59
2022-08-17T04:54:28.949Z,97758.75
2022-08-17T04:56:55.346Z,97764.78
2022-08-17T04:59:21.733Z,97764.28
2022-08-17T05:01:50.145Z,97767.16
2022-08-17T05:04:21.113Z,97769.25
2022-08-17T05:07:01.094Z,97765.38
2022-08-17T05:09:27.503Z,97773.50
2022-08-17T05:11:53.896Z,97786.06
2022-08-17T05:14:22.604Z,97781.75
2022-08-17T05:16:59.649Z,97787.75
2022-08-17T05:19:27.638Z,97789.84
2022-08-17T05:21:54.002Z,97795.41
2022-08-17T05:24:42.895Z,97789.47
2022-08-17T05:27:06.955Z,97785.75
2022-08-17T05:29:35.213Z,97787.91
2022-08-17T05:32:38.322Z,97799.06
2022-08-17T05:35:00.148Z,97788.88
2022-08-17T05:37:26.549Z,97788.13
2022-08-17T05:39:53.633Z,97786.06
2022-08-17T05:42:20.139Z,97791.47
2022-08-17T05:44:46.657Z,97775.41
2022-08-17T05:47:13.019Z,97790.22
2022-08-17T05:49:39.409Z,97785.75
2022-08-17T05:52:24.874Z,97785.25
2022-08-17T05:54:57.232Z,97789.72
2022-08-17T05:57:53.328Z,97787.69
2022-08-17T06:00:30.158Z,97797.44
2022-08-17T06:03:19.424Z,97800.56
2022-08-17T06:05:45.732Z,97792.19
2022-08-17T06:08:24.982Z,97801.31
2022-08-17T06:11:06.775Z,97795.84
2022-08-17T06:14:05.617Z,97800.16
2022-08-17T06:16:36.225Z,97801.31
2022-08-17T06:19:04.307Z,97790.94
2022-08-17T06:21:32.912Z,97792.31
2022-08-17T06:24:00.522Z,97787.84
2022-08-17T06:26:31.238Z,97798.97
2022-08-17T06:29:08.895Z,97792.72
2022-08-17T06:31:45.257Z,97798.38
2022-08-17T06:34:12.014Z,97796.50
2022-08-17T06:36:44.610Z,97794.31
2022-08-17T06:39:29.114Z,97792.81
2022-08-17T06:41:58.658Z,97800.97
2022-08-17T06:44:49.825Z,97803.50
2022-08-17T06:47:28.101Z,97794.66
2022-08-17T06:49:59.268Z,97807.53
2022-08-17T06:52:45.974Z,97805.22
2022-08-17T06:55:37.848Z,97809.34
2022-08-17T06:58:16.112Z,97805.75
2022-08-17T07:00:43.739Z,97803.97
2022-08-17T07:03:20.900Z,97813.41
2022-08-17T07:05:51.693Z,97818.69
2022-08-17T07:08:35.144Z,97810.56
2022-08-17T07:11:02.484Z,97816.00
2022-08-17T07:13:42.145Z,97810.88
2022-08-17T07:16:14.998Z,97819.16
2022-08-17T07:18:41.392Z,97821.66
2022-08-17T07:21:27.899Z,97816.66
2022-08-17T07:24:07.276Z,97811.22
2022-08-17T07:26:33.724Z,97810.22
2022-08-17T07:29:00.115Z,97817.25
2022-08-17T07:31:26.522Z,97813.28
2022-08-17T07:34:14.444Z,97820.66
2022-08-17T07:36:42.030Z,97828.84
2022-08-17T07:39:08.466Z,97824.78
2022-08-17T07:41:57.941Z,97833.16
2022-08-17T07:44:25.739Z,97829.25
2022-08-17T07:47:10.760Z,97826.34
2022-08-17T07:49:38.150Z,97820.41
2022-08-17T07:52:24.326Z,97830.75
2022-08-17T07:54:54.948Z,97827.81
2022-08-17T07:57:25.414Z,97832.69
2022-08-17T08:00:01.957Z,97835.25
2022-08-17T08:02:38.811Z,97829.25
2022-08-17T08:05:13.607Z,97839.00
2022-08-17T08:07:54.249Z,97837.78
2022-08-17T08:10:27.613Z,97834.47
2022-08-17T08:13:04.287Z,97835.53
2022-08-17T08:15:54.251Z,97846.56
2022-08-17T08:18:53.422Z,97838.09
2022-08-17T08:21:38.023Z,97843.94
2022-08-17T08:24:12.996Z,97847.03
2022-08-17T08:26:39.308Z,97850.75
2022-08-17T08:29:22.524Z,97853.06
2022-08-17T08:31:58.013Z,97852.00
2022-08-17T08:35:02.246Z,97844.16
2022-08-17T08:37:49.941Z,97854.72
2022-08-17T08:40:33.721Z,97849.72
2022-08-17T08:43:12.601Z,97856.53
2022-08-17T08:45:38.899Z,97859.66
2022-08-17T08:48:22.851Z,97863.41
2022-08-17T08:51:16.445Z,97861.84
2022-08-17T08:54:03.827Z,97861.25
2022-08-17T08:56:36.383Z,97866.16
2022-08-17T08:59:10.508Z,97870.13
2022-08-17T09:01:38.028Z,97869.97
2022-08-17T09:04:20.002Z,97864.91
2022-08-17T09:07:08.514Z,97863.97
2022-08-17T09:09:38.343Z,97867.13
2022-08-17T09:12:31.486Z,97864.59
2022-08-17T09:15:01.172Z,97853.69
2022-08-17T09:17:33.248Z,97864.78
2022-08-17T09:20:27.982Z,97870.53
2022-08-17T09:23:00.064Z,97860.03
2022-08-17T09:25:28.392Z,97870.69
2022-08-17T09:28:05.370Z,97861.81
2022-08-17T09:30:36.296Z,97861.03
2022-08-17T09:33:04.678Z,97861.38
2022-08-17T09:35:36.858Z,97860.03
2022-08-17T09:38:04.039Z,97852.94
2022-08-17T09:40:49.462Z,97846.59
2022-08-17T09:43:28.163Z,97855.44
2022-08-17T09:45:59.008Z,97841.72
2022-08-17T09:48:31.039Z,97848.09
2022-08-17T09:51:13.953Z,97855.38
2022-08-17T09:53:40.599Z,97855.34
2022-08-17T09:56:06.941Z,97857.06
2022-08-17T09:58:37.178Z,97854.97
2022-08-17T10:01:08.254Z,97850.53
2022-08-17T10:03:34.630Z,97854.69
2022-08-17T10:06:06.476Z,97845.34
2022-08-17T10:08:33.840Z,97848.78
2022-08-17T10:11:19.308Z,97844.50
2022-08-17T10:13:53.192Z,97846.16
2022-08-17T10:16:30.408Z,97844.88
2022-08-17T10:19:02.041Z,97844.16
2022-08-17T10:21:47.259Z,97844.44
2022-08-17T10:24:32.482Z,97841.53
2022-08-17T10:26:59.764Z,97842.94
2022-08-17T10:29:44.168Z,97831.75
2022-08-17T10:32:28.260Z,97834.31
2022-08-17T10:35:01.697Z,97833.97
2022-08-17T10:37:32.312Z,97834.09
2022-08-17T10:40:11.123Z,97833.47
2022-08-17T10:42:42.639Z,97836.19
2022-08-17T10:45:26.682Z,97837.03
2022-08-17T10:47:56.118Z,97839.72
2022-08-17T10:50:42.762Z,97839.50
2022-08-17T10:53:09.156Z,97830.28
2022-08-17T10:55:35.535Z,97830.75
2022-08-17T10:58:20.923Z,97830.41
2022-08-17T11:00:53.432Z,97829.69
2022-08-17T11:03:21.162Z,97825.94
2022-08-17T11:05:47.509Z,97830.16
2022-08-17T11:08:18.896Z,97815.22
2022-08-17T11:10:51.702Z,97820.59
2022-08-17T11:13:24.520Z,97809.38
2022-08-17T11:16:08.138Z,97812.50
2022-08-17T11:18:46.484Z,97812.31
2022-08-17T11:21:32.116Z,97818.88
2022-08-17T11:24:05.023Z,97810.53
2022-08-17T11:26:35.086Z,97807.53
2022-08-17T11:29:06.284Z,97813.28
2022-08-17T11:31:38.732Z,97814.66
2022-08-17T11:34:07.897Z,97813.44
2022-08-17T11:36:37.583Z,97817.72
2022-08-17T11:39:27.257Z,97812.38
2022-08-17T11:41:59.564Z,97819.38
2022-08-17T11:44:32.253Z,97827.47
2022-08-17T11:47:17.307Z,97813.50
2022-08-17T11:50:15.613Z,97822.53
2022-08-17T11:52:46.826Z,97818.47
2022-08-17T11:55:37.500Z,97819.78
2022-08-17T11:58:06.340Z,97833.56
2022-08-17T12:00:44.971Z,97830.59
2022-08-17T12:03:30.452Z,97828.16
2022-08-17T12:06:04.363Z,97827.31
2022-08-17T12:08:32.615Z,97833.41
2022-08-17T12:11:00.737Z,97837.41
2022-08-17T12:13:38.743Z,97833.53
2022-08-17T12:16:07.240Z,97832.19
2022-08-17T12:18:35.789Z,97828.47
2022-08-17T12:21:13.331Z,97827.75
2022-08-17T12:23:42.003Z,97830.91
2022-08-17T12:26:19.361Z,97825.91
2022-08-17T12:28:46.994Z,97827.66
2022-08-17T12:31:34.362Z,97826.59
2022-08-17T12:34:00.802Z,97819.00
2022-08-17T12:36:28.351Z,97820.94
2022-08-17T12:38:59.467Z,97817.69
2022-08-17T12:41:41.120Z,97824.06
2022-08-17T12:44:12.899Z,97823.75
2022-08-17T12:46:51.487Z,97820.41
2022-08-17T12:49:26.963Z,97817.00
2022-08-17T12:52:02.551Z,97817.94
2022-08-17T12:54:39.596Z,97815.97
2022-08-17T12:57:09.553Z,97822.63
2022-08-17T12:59:36.452Z,97814.44
2022-08-17T13:02:02.978Z,97817.69
2022-08-17T13:04:29.619Z,97819.38
2022-08-17T13:06:59.870Z,97808.88
2022-08-17T13:09:35.899Z,97813.19
2022-08-17T13:12:07.877Z,97810.44
2022-08-17T13:14:35.130Z,97809.59
2022-08-17T13:17:01.687Z,97804.72
2022-08-17T13:19:38.863Z,97805.91
2022-08-17T13:22:09.212Z,97807.31
2022-08-17T13:24:37.999Z,97800.81
2022-08-17T13:27:08.258Z,97805.75
2022-08-17T13:29:38.913Z,97806.66
2022-08-17T13:32:09.622Z,97806.38
2022-08-17T13:35:05.872Z,97808.78
2022-08-17T13:37:34.593Z,97810.88
2022-08-17T13:40:10.221Z,97806.06
2022-08-17T13:42:52.316Z,97804.97
2022-08-17T13:45:35.165Z,97810.78
2022-08-17T13:48:08.550Z,97810.16
2022-08-17T13:50:41.312Z,97810.56
2022-08-17T13:53:17.734Z,97806.16
2022-08-17T13:55:58.091Z,97810.59
2022-08-17T13:58:28.385Z,97801.97
2022-08-17T14:00:56.179Z,97801.25
2022-08-17T14:03:23.155Z,97801.63
2022-08-17T14:05:50.150Z,97805.69
2022-08-17T14:08:16.831Z,97805.50
2022-08-17T14:10:45.503Z,97803.00
2022-08-17T14:13:13.209Z,97809.41
2022-08-17T14:15:54.950Z,97814.59
2022-08-17T14:18:52.007Z,97809.69
2022-08-17T14:21:09.171Z,97817.44
2022-08-17T14:23:35.816Z,97814.44
2022-08-17T14:26:02.199Z,97820.63
2022-08-17T14:28:28.587Z,97812.84
2022-08-17T14:30:55.435Z,97812.63
2022-08-17T14:33:24.789Z,97818.31
2022-08-17T14:35:53.465Z,97815.28
2022-08-17T14:38:19.936Z,97811.66
2022-08-17T14:40:46.434Z,97799.88
2022-08-17T14:43:12.858Z,97797.81
2022-08-17T14:45:39.234Z,97793.59
2022-08-17T14:48:07.626Z,97801.22
2022-08-17T14:50:38.856Z,97808.19
2022-08-17T14:53:06.278Z,97806.56
2022-08-17T14:55:32.886Z,97812.59
2022-08-17T14:57:59.290Z,97817.09
2022-08-17T15:00:26.738Z,97812.13
2022-08-17T15:02:54.031Z,97815.16
2022-08-17T15:05:21.229Z,97804.25
2022-08-17T15:07:47.664Z,97795.38
2022-08-17T15:10:14.271Z,97796.66
2022-08-17T15:12:40.839Z,97801.00
2022-08-17T15:15:07.928Z,97796.88
2022-08-17T15:17:44.207Z,97787.38
2022-08-17T15:20:16.734Z,97790.81
2022-08-17T15:22:43.361Z,97782.84
2022-08-17T15:25:10.561Z,97782.53
2022-08-17T15:27:36.958Z,97788.19
2022-08-17T15:30:04.895Z,97778.88
2022-08-17T15:32:35.078Z,97773.59
2022-08-17T15:35:01.972Z,97771.22
2022-08-17T15:37:28.623Z,97765.31
2022-08-17T15:39:55.185Z,97752.69
2022-08-17T15:42:21.725Z,97752.31
2022-08-17T15:44:48.315Z,97759.91
2022-08-17T15:47:17.492Z,97756.38
2022-08-17T15:49:45.368Z,97746.56
2022-08-17T15:52:18.634Z,97747.56
2022-08-17T15:54:51.532Z,97738.13
2022-08-17T15:57:17.909Z,97723.31
2022-08-17T15:59:44.541Z,97718.81
2022-08-17T16:03:13.702Z,97719.19
2022-08-17T16:05:10.254Z,97717.59
2022-08-17T16:07:36.979Z,97718.13
2022-08-17T16:10:04.042Z,97713.44
2022-08-17T16:12:30.513Z,97711.13
2022-08-17T16:14:56.952Z,97714.03
2022-08-17T16:17:39.276Z,97703.75
2022-08-17T16:20:07.668Z,97703.94
2022-08-17T16:22:35.003Z,97704.56
2022-08-17T16:25:02.360Z,97697.19
2022-08-17T16:27:28.751Z,97700.00
2022-08-17T16:29:55.487Z,97702.19
2022-08-17T16:32:31.812Z,97685.44
2022-08-17T16:35:03.413Z,97692.16
2022-08-17T16:37:30.889Z,97686.41
2022-08-17T16:40:00.687Z,97687.34
2022-08-17T16:42:28.374Z,97683.22
2022-08-17T16:44:55.056Z,97694.47
2022-08-17T16:47:21.510Z,97688.94
2022-08-17T16:49:48.347Z,97688.34
2022-08-17T16:52:15.094Z,97684.94
2022-08-17T16:54:59.215Z,97683.91
2022-08-17T16:57:25.684Z,97688.25
2022-08-17T16:59:53.218Z,97685.50
2022-08-17T17:02:30.458Z,97686.66
2022-08-17T17:05:09.266Z,97684.72
2022-08-17T17:07:55.423Z,97687.66
2022-08-17T17:10:26.844Z,97687.66
2022-08-17T17:13:01.395Z,97688.78
2022-08-17T17:15:31.937Z,97682.94
2022-08-17T17:18:06.963Z,97689.56
2022-08-17T17:20:36.437Z,97701.16
2022-08-17T17:23:21.673Z,97702.94
2022-08-17T17:25:51.011Z,97705.09
2022-08-17T17:28:30.505Z,97706.69
2022-08-17T17:31:08.146Z,97709.41
2022-08-17T17:33:47.391Z,97708.84
2022-08-17T17:36:20.858Z,97720.06
2022-08-17T17:38:48.931Z,97716.56
2022-08-17T17:41:25.328Z,97721.38
2022-08-17T17:43:53.527Z,97711.19
2022-08-17T17:46:28.459Z,97714.38
2022-08-17T17:48:56.753Z,97714.59
2022-08-17T17:52:09.201Z,97731.84
2022-08-17T17:54:32.473Z,97722.78
2022-08-17T17:57:10.984Z,97727.72
2022-08-17T17:59:44.213Z,97728.66
2022-08-17T18:02:10.723Z,97720.03
2022-08-17T18:04:43.576Z,97715.09
2022-08-17T18:07:12.947Z,97721.06
2022-08-17T18:09:54.704Z,97725.69
2022-08-17T18:12:31.320Z,97726.41
2022-08-17T18:15:09.972Z,97730.91
2022-08-17T18:17:36.431Z,97716.63
2022-08-17T18:20:04.149Z,97719.19
2022-08-17T18:22:31.285Z,97725.91
2022-08-17T18:24:57.671Z,97726.53
2022-08-17T18:27:34.085Z,97736.13
2022-08-17T18:30:22.394Z,97732.03
2022-08-17T18:32:48.844Z,97734.22
2022-08-17T18:35:18.203Z,97732.63
2022-08-17T18:37:45.078Z,97733.75
2022-08-17T18:40:23.612Z,97734.56
2022-08-17T18:43:08.841Z,97727.16
2022-08-17T18:45:35.284Z,97737.91
2022-08-17T18:48:01.934Z,97741.41
2022-08-17T18:50:41.822Z,97750.91
2022-08-17T18:53:30.170Z,97750.97
2022-08-17T18:56:16.397Z,97751.94
2022-08-17T18:58:42.809Z,97744.78
2022-08-17T19:01:17.528Z,97741.09
2022-08-17T19:03:46.482Z,97737.34
2022-08-17T19:06:17.619Z,97736.56
2022-08-17T19:08:44.424Z,97741.53
2022-08-17T19:11:16.786Z,97747.00
2022-08-17T19:13:52.266Z,97752.03
2022-08-17T19:16:20.079Z,97757.22
2022-08-17T19:18:48.664Z,97755.25
2022-08-17T19:21:16.336Z,97752.00
2022-08-17T19:23:53.698Z,97748.06
2022-08-17T19:26:50.899Z,97743.56
2022-08-17T19:29:41.528Z,97737.81
2022-08-17T19:32:08.209Z,97742.03
2022-08-17T19:34:34.826Z,97743.59
2022-08-17T19:37:16.546Z,97744.78
2022-08-17T19:39:46.083Z,97743.94
2022-08-17T19:42:31.439Z,97744.91
2022-08-17T19:45:03.087Z,97750.75
2022-08-17T19:47:53.872Z,97748.06
2022-08-17T19:50:22.511Z,97756.09
2022-08-17T19:53:11.833Z,97759.19
2022-08-17T19:55:43.659Z,97758.63
2022-08-17T19:58:30.268Z,97761.97
2022-08-17T20:00:56.741Z,97758.91
2022-08-17T20:03:27.574Z,97755.81
2022-08-17T20:06:12.231Z,97762.88
2022-08-17T20:08:40.840Z,97774.41
2022-08-17T20:11:11.515Z,97774.22
2022-08-17T20:13:41.013Z,97782.41
2022-08-17T20:16:07.382Z,97782.06
2022-08-17T20:19:05.731Z,97790.66
2022-08-17T20:21:35.630Z,97790.81
2022-08-17T20:24:11.070Z,97792.25
2022-08-17T20:26:58.073Z,97800.47
2022-08-17T20:29:39.918Z,97795.94
2022-08-17T20:32:14.976Z,97794.28
2022-08-17T20:34:42.663Z,97801.81
2022-08-17T20:37:09.108Z,97798.53
2022-08-17T20:39:39.839Z,97798.09
2022-08-17T20:42:09.213Z,97795.94
2022-08-17T20:44:36.806Z,97797.97
2022-08-17T20:47:26.927Z,97800.19
2022-08-17T20:50:04.804Z,97804.13
2022-08-17T20:52:42.317Z,97809.16
2022-08-17T20:55:09.448Z,97808.38
2022-08-17T20:57:35.801Z,97811.19
2022-08-17T21:00:16.452Z,97800.56
2022-08-17T21:02:47.274Z,97803.50
2022-08-17T21:05:32.388Z,97809.72
2022-08-17T21:10:27.267Z,97805.41
2022-08-17T21:12:59.438Z,97803.22
2022-08-17T21:18:00.769Z,97810.09
2022-08-17T21:20:32.514Z,97807.94
2022-08-17T21:23:02.275Z,97808.47
2022-08-17T21:25:40.693Z,97811.63
2022-08-17T21:28:14.112Z,97814.06
2022-08-17T21:30:40.995Z,97821.31
2022-08-17T21:33:17.012Z,97820.59
2022-08-17T21:35:53.792Z,97815.91
2022-08-17T21:38:57.688Z,97812.28
2022-08-17T21:41:34.436Z,97809.09
2022-08-17T21:44:05.573Z,97812.56
2022-08-17T21:46:36.781Z,97804.75
2022-08-17T21:49:13.811Z,97804.47
2022-08-17T21:51:45.016Z,97806.94
2022-08-17T21:54:35.433Z,97805.69
2022-08-17T21:57:02.363Z,97804.13
2022-08-17T21:59:32.925Z,97808.06
2022-08-17T22:02:00.006Z,97812.59
2022-08-17T22:04:29.472Z,97818.88
2022-08-17T22:06:57.401Z,97821.38
2022-08-17T22:09:34.613Z,97815.69
2022-08-17T22:12:09.017Z,97817.06
2022-08-17T22:14:51.495Z,97829.22
2022-08-17T22:17:24.257Z,97833.38
2022-08-17T22:19:55.765Z,97831.09
2022-08-17T22:22:22.077Z,97837.94
2022-08-17T22:24:57.548Z,97843.91
2022-08-17T22:27:43.386Z,97859.00
2022-08-17T22:30:22.724Z,97856.41
2022-08-17T22:32:49.803Z,97869.72
2022-08-17T22:35:16.205Z,97867.59
2022-08-17T22:37:42.552Z,97862.97
2022-08-17T22:40:09.086Z,97864.25
2022-08-17T22:42:41.794Z,97863.22
2022-08-17T22:45:08.292Z,97871.84
2022-08-17T22:47:42.851Z,97871.44
2022-08-17T22:50:13.871Z,97878.59
2022-08-17T22:53:02.121Z,97884.97
2022-08-17T22:55:48.308Z,97885.75
2022-08-17T22:58:33.896Z,97878.53
2022-08-17T23:01:18.950Z,97879.38
2022-08-17T23:04:05.677Z,97878.47
2022-08-17T23:06:33.801Z,97884.75
2022-08-17T23:09:02.642Z,97881.16
2022-08-17T23:11:36.844Z,97886.84
2022-08-17T23:14:15.613Z,97876.72
2022-08-17T23:16:44.916Z,97877.06
2022-08-17T23:19:11.823Z,97879.06
2022-08-17T23:21:38.193Z,97872.59
2022-08-17T23:24:04.665Z,97866.06
2022-08-17T23:26:33.066Z,97865.19
2022-08-17T23:29:02.249Z,97862.72
2022-08-17T23:31:28.884Z,97860.63
2022-08-17T23:33:55.524Z,97861.13
2022-08-17T23:36:23.602Z,97854.72
2022-08-17T23:38:50.096Z,97857.06
2022-08-17T23:41:17.144Z,97853.88
2022-08-17T23:43:47.481Z,97853.50
2022-08-17T23:46:14.055Z,97856.22
2022-08-17T23:48:41.116Z,97849.06
2022-08-17T23:51:34.628Z,97847.47
2022-08-17T23:54:07.186Z,97849.53
2022-08-17T23:56:37.722Z,97852.88
2022-08-17T23:59:04.095Z,97863.31
